Promitheas — SYIJ — position and weather

sailwx.info

Track history (hours):
 
Tides and Currents Weather Stations Pressure Air Temp Water Temp Dewpoint Dewpoint Depression Visibility Wind Speed Wind Dir Waves Ship Positions

Promitheas

Last reported at 2016-May-03 08:33 UTC. Time now 2016-May-03 08:44 UTC.
Position N 60°00' E 026°48'.

Length 249 m; draft 14.3 m.

Type: Tanker. MMSI: 240547000.

Date/timePositionNaut miles runAvg speedWind from/ knotsBaromVisibWave heightAir tempDewpointWater temp
2016-May-03 08:33N 60°00' E 026°48'1313.4
2016-May-03 07:33N 60°03' E 027°14'1814.1
2016-May-03 06:15N 60°12' E 027°46'1014.0
2016-May-03 05:33N 60°10' E 028°05'1313.0
2016-May-03 04:33N 60°09' E 028°31'1010.2
2016-May-03 03:33N 60°15' E 028°48'6 0.5
2016-May-02 15:19N 60°20' E 028°42'0 0.0
2016-May-02 14:20N 60°20' E 028°42'0 0.0
2016-May-02 13:27N 60°20' E 028°42'0 0.0
2016-May-02 12:33N 60°20' E 028°42'0 0.0
2016-May-02 11:32N 60°20' E 028°42'0 0.0
2016-May-02 04:33N 60°20' E 028°42'0 0.0
2016-May-02 03:27N 60°20' E 028°42'0 0.0
2016-May-02 00:08N 60°20' E 028°42'0 0.0
2016-May-01 23:27N 60°20' E 028°42'1 0.9
2016-May-01 22:30N 60°19' E 028°42'7 7.7
2016-May-01 21:33N 60°12' E 028°45'1312.7
2016-May-01 20:33N 60°03' E 028°28'2 1.6
2016-May-01 19:28N 60°01' E 028°27'0 0.0
2016-May-01 18:31N 60°01' E 028°27'0 0.0
2016-May-01 17:31N 60°01' E 028°27'0 0.0
2016-May-01 16:31N 60°01' E 028°27'0 0.0
2016-May-01 15:31N 60°01' E 028°27'0 0.0
2016-May-01 14:31N 60°01' E 028°27'0 0.0
2016-May-01 13:31N 60°01' E 028°27'0 0.0
2016-May-01 12:31N 60°01' E 028°27'0 0.1
2016-May-01 11:31N 60°01' E 028°27'0 0.1
2016-May-01 10:22N 60°01' E 028°27'0 0.1
2016-May-01 09:25N 60°01' E 028°27'0 0.0
2016-May-01 08:25N 60°01' E 028°27'0 0.0
2016-May-01 07:25N 60°01' E 028°27'0 0.0
2016-May-01 06:28N 60°01' E 028°27'0 0.0
2016-May-01 05:28N 60°01' E 028°27'0 0.0
2016-May-01 04:28N 60°01' E 028°27'0 0.0
2016-May-01 03:31N 60°01' E 028°27'0 0.0
2016-May-01 02:31N 60°01' E 028°27'0 0.0
2016-May-01 01:31N 60°01' E 028°27'0 0.0
2016-May-01 00:31N 60°01' E 028°27'0 0.0
2016-Apr-30 23:31N 60°01' E 028°27'0 0.0
2016-Apr-30 22:31N 60°01' E 028°27'0 0.0
2016-Apr-30 21:31N 60°01' E 028°27'0 0.0
2016-Apr-30 20:22N 60°01' E 028°27'0 0.0
2016-Apr-30 19:25N 60°01' E 028°27'0 0.0
2016-Apr-30 18:25N 60°01' E 028°27'0 0.0
2016-Apr-30 17:25N 60°01' E 028°27'0 0.0
2016-Apr-30 16:28N 60°01' E 028°27'0 0.0
2016-Apr-30 15:28N 60°01' E 028°27'0 0.0
2016-Apr-30 14:28N 60°01' E 028°27'0 0.0
2016-Apr-30 13:31N 60°01' E 028°27'0 0.0
2016-Apr-30 12:16N 60°01' E 028°27'0 0.0
2016-Apr-30 11:31N 60°01' E 028°27'0 0.1
2016-Apr-30 10:31N 60°01' E 028°27'0 0.0
2016-Apr-30 09:19N 60°01' E 028°27'0 0.0
2016-Apr-30 08:31N 60°01' E 028°27'0 0.0
2016-Apr-30 07:22N 60°01' E 028°27'0 0.0
2016-Apr-30 06:22N 60°01' E 028°27'0 0.0
2016-Apr-30 05:33N 60°01' E 028°27'0 0.0
2016-Apr-30 04:33N 60°01' E 028°27'0 0.0
2016-Apr-30 03:33N 60°01' E 028°27'0 0.0
2016-Apr-30 02:33N 60°01' E 028°27'0 0.0
2016-Apr-30 01:33N 60°01' E 028°27'0 0.0
2016-Apr-30 00:33N 60°01' E 028°27'0 0.0
2016-Apr-29 23:33N 60°01' E 028°27'0 0.0
2016-Apr-29 22:33N 60°01' E 028°27'0 0.1
2016-Apr-29 21:33N 60°01' E 028°27'0 0.1
2016-Apr-29 20:33N 60°01' E 028°27'0 0.0
2016-Apr-29 19:33N 60°01' E 028°27'0 0.0
2016-Apr-29 18:33N 60°01' E 028°27'0 0.0
2016-Apr-29 17:33N 60°01' E 028°27'0 0.1
2016-Apr-29 16:33N 60°01' E 028°27'0 0.0
2016-Apr-29 15:33N 60°01' E 028°27'0 0.0
2016-Apr-29 14:33N 60°01' E 028°27'0 0.0
2016-Apr-29 13:33N 60°01' E 028°27'0 0.0
2016-Apr-29 12:33N 60°01' E 028°27'0 0.0
2016-Apr-29 11:33N 60°01' E 028°27'0 0.0
2016-Apr-29 10:33N 60°01' E 028°27'0 0.0
2016-Apr-29 09:33N 60°01' E 028°27'0 0.0
2016-Apr-29 08:33N 60°01' E 028°27'0 0.0
2016-Apr-29 07:33N 60°01' E 028°27'0 0.0
2016-Apr-29 06:33N 60°01' E 028°27'0 0.0
2016-Apr-29 05:33N 60°01' E 028°27'0 0.0
2016-Apr-29 04:33N 60°01' E 028°27'0 0.0
2016-Apr-29 03:34N 60°01' E 028°27'0 0.0
2016-Apr-29 02:33N 60°01' E 028°27'0 0.0
2016-Apr-29 01:33N 60°01' E 028°27'0 0.0
2016-Apr-29 00:33N 60°01' E 028°27'0 0.0
2016-Apr-28 23:33N 60°01' E 028°27'0 0.1
2016-Apr-28 22:33N 60°01' E 028°27'0 0.1
2016-Apr-28 21:33N 60°01' E 028°27'0 0.1
2016-Apr-28 20:33N 60°01' E 028°27'0 0.0
2016-Apr-28 19:33N 60°01' E 028°27'0 0.0
2016-Apr-28 18:33N 60°01' E 028°27'0 0.0
2016-Apr-28 17:33N 60°01' E 028°27'0 0.0
2016-Apr-28 16:33N 60°01' E 028°27'0 0.1
2016-Apr-28 15:33N 60°01' E 028°27'0 0.0
2016-Apr-28 14:33N 60°01' E 028°27'0 0.0
2016-Apr-28 13:33N 60°01' E 028°27'0 0.0
2016-Apr-28 12:33N 60°01' E 028°27'0 0.0
2016-Apr-28 11:33N 60°01' E 028°27'0 0.0
2016-Apr-28 10:33N 60°01' E 028°27'0 0.0
2016-Apr-28 09:33N 60°01' E 028°27'0 0.0
2016-Apr-28 08:33N 60°01' E 028°27'0 0.1
2016-Apr-28 07:33N 60°01' E 028°27'3 2.9
2016-Apr-28 06:33N 60°04' E 028°24'9 9.2
2016-Apr-28 05:33N 60°08' E 028°08'10 9.5
2016-Apr-28 04:33N 60°11' E 027°49'9 9.2
2016-Apr-28 03:33N 60°07' E 027°33'10 9.5
2016-Apr-28 02:33N 60°02' E 027°16'11 9.0
2016-Apr-28 01:17N 59°59' E 026°54'7 9.4
2016-Apr-28 00:33N 59°60' E 026°41'10 9.4
2016-Apr-27 23:29N 59°57' E 026°21'9 9.2
2016-Apr-27 22:33N 59°55' E 026°05'9 9.2
2016-Apr-27 21:33N 59°52' E 025°47'9 9.1
2016-Apr-27 20:33N 59°50' E 025°29'45 9.0
2016-Apr-27 15:33N 59°40' E 024°03'9 9.5
2016-Apr-27 14:33N 59°37' E 023°45'10 9.6
2016-Apr-27 13:33N 59°34' E 023°27'10 9.8
2016-Apr-27 12:31N 59°31' E 023°08'33310.0
2016-Apr-26 03:03N 55°40' E 015°41'610.7
2016-Apr-26 02:32N 55°38' E 015°31'1110.8
2016-Apr-26 01:33N 55°34' E 015°14'1110.9
2016-Apr-26 00:33N 55°29' E 014°57'1110.8
2016-Apr-25 23:33N 55°24' E 014°40'1414.0
2016-Apr-25 22:34N 55°13' E 014°26'1515.2
2016-Apr-25 21:34N 55°01' E 014°09'1515.4
2016-Apr-25 20:33N 54°55' E 013°44'4414.6
2016-Apr-25 17:33N 54°41' E 012°32'1311.8
2016-Apr-25 16:25N 54°31' E 012°16'9 9.5
2016-Apr-25 15:30N 54°24' E 012°06'1111.3
2016-Apr-25 14:33N 54°25' E 011°48'1211.5
2016-Apr-25 13:33N 54°30' E 011°30'1111.3
2016-Apr-25 12:33N 54°35' E 011°12'1211.7
2016-Apr-25 11:33N 54°41' E 010°55'10 9.9
2016-Apr-25 10:33N 54°51' E 010°52'10 9.8
2016-Apr-25 09:33N 54°59' E 011°00'1010.2
2016-Apr-25 08:33N 55°09' E 011°03'9 9.3
2016-Apr-25 07:33N 55°19' E 011°02'4310.3
2016-Apr-25 03:24N 56°01' E 011°02'1011.3
2016-Apr-25 02:34N 56°11' E 011°05'4110.2
2016-Apr-24 22:33N 56°44' E 011°49'1010.3
2016-Apr-24 21:33N 56°54' E 011°46'1110.8
2016-Apr-24 20:33N 57°04' E 011°40'1110.9
2016-Apr-24 19:33N 57°14' E 011°33'1111.5
2016-Apr-24 18:33N 57°25' E 011°26'1111.4
2016-Apr-24 17:33N 57°34' E 011°12'1211.6
2016-Apr-24 16:33N 57°42' E 010°56'1010.5
2016-Apr-24 15:33N 57°47' E 010°39'  
Track history (hours):
 
Tides and Currents Weather Stations Pressure Air Temp Water Temp Dewpoint Dewpoint Depression Visibility Wind Speed Wind Dir Waves Ship Positions

Promitheas

Last reported at 2016-May-03 08:33 UTC. Time now 2016-May-03 08:44 UTC.
Position N 60°00' E 026°48'.

Length 249 m; draft 14.3 m.

Type: Tanker. MMSI: 240547000.

Date/timePositionNaut miles runAvg speedWind from/ knotsBaromVisibWave heightAir tempDewpointWater temp
2016-May-03 08:33N 60°00' E 026°48'1313.4
2016-May-03 07:33N 60°03' E 027°14'1814.1
2016-May-03 06:15N 60°12' E 027°46'1014.0
2016-May-03 05:33N 60°10' E 028°05'1313.0
2016-May-03 04:33N 60°09' E 028°31'1010.2
2016-May-03 03:33N 60°15' E 028°48'6 0.5
2016-May-02 15:19N 60°20' E 028°42'0 0.0
2016-May-02 14:20N 60°20' E 028°42'0 0.0
2016-May-02 13:27N 60°20' E 028°42'0 0.0
2016-May-02 12:33N 60°20' E 028°42'0 0.0
2016-May-02 11:32N 60°20' E 028°42'0 0.0
2016-May-02 04:33N 60°20' E 028°42'0 0.0
2016-May-02 03:27N 60°20' E 028°42'0 0.0
2016-May-02 00:08N 60°20' E 028°42'0 0.0
2016-May-01 23:27N 60°20' E 028°42'1 0.9
2016-May-01 22:30N 60°19' E 028°42'7 7.7
2016-May-01 21:33N 60°12' E 028°45'1312.7
2016-May-01 20:33N 60°03' E 028°28'2 1.6
2016-May-01 19:28N 60°01' E 028°27'0 0.0
2016-May-01 18:31N 60°01' E 028°27'0 0.0
2016-May-01 17:31N 60°01' E 028°27'0 0.0
2016-May-01 16:31N 60°01' E 028°27'0 0.0
2016-May-01 15:31N 60°01' E 028°27'0 0.0
2016-May-01 14:31N 60°01' E 028°27'0 0.0
2016-May-01 13:31N 60°01' E 028°27'0 0.0
2016-May-01 12:31N 60°01' E 028°27'0 0.1
2016-May-01 11:31N 60°01' E 028°27'0 0.1
2016-May-01 10:22N 60°01' E 028°27'0 0.1
2016-May-01 09:25N 60°01' E 028°27'0 0.0
2016-May-01 08:25N 60°01' E 028°27'0 0.0
2016-May-01 07:25N 60°01' E 028°27'0 0.0
2016-May-01 06:28N 60°01' E 028°27'0 0.0
2016-May-01 05:28N 60°01' E 028°27'0 0.0
2016-May-01 04:28N 60°01' E 028°27'0 0.0
2016-May-01 03:31N 60°01' E 028°27'0 0.0
2016-May-01 02:31N 60°01' E 028°27'0 0.0
2016-May-01 01:31N 60°01' E 028°27'0 0.0
2016-May-01 00:31N 60°01' E 028°27'0 0.0
2016-Apr-30 23:31N 60°01' E 028°27'0 0.0
2016-Apr-30 22:31N 60°01' E 028°27'0 0.0
2016-Apr-30 21:31N 60°01' E 028°27'0 0.0
2016-Apr-30 20:22N 60°01' E 028°27'0 0.0
2016-Apr-30 19:25N 60°01' E 028°27'0 0.0
2016-Apr-30 18:25N 60°01' E 028°27'0 0.0
2016-Apr-30 17:25N 60°01' E 028°27'0 0.0
2016-Apr-30 16:28N 60°01' E 028°27'0 0.0
2016-Apr-30 15:28N 60°01' E 028°27'0 0.0
2016-Apr-30 14:28N 60°01' E 028°27'0 0.0
2016-Apr-30 13:31N 60°01' E 028°27'0 0.0
2016-Apr-30 12:16N 60°01' E 028°27'0 0.0
2016-Apr-30 11:31N 60°01' E 028°27'0 0.1
2016-Apr-30 10:31N 60°01' E 028°27'0 0.0
2016-Apr-30 09:19N 60°01' E 028°27'0 0.0
2016-Apr-30 08:31N 60°01' E 028°27'0 0.0
2016-Apr-30 07:22N 60°01' E 028°27'0 0.0
2016-Apr-30 06:22N 60°01' E 028°27'0 0.0
2016-Apr-30 05:33N 60°01' E 028°27'0 0.0
2016-Apr-30 04:33N 60°01' E 028°27'0 0.0
2016-Apr-30 03:33N 60°01' E 028°27'0 0.0
2016-Apr-30 02:33N 60°01' E 028°27'0 0.0
2016-Apr-30 01:33N 60°01' E 028°27'0 0.0
2016-Apr-30 00:33N 60°01' E 028°27'0 0.0
2016-Apr-29 23:33N 60°01' E 028°27'0 0.0
2016-Apr-29 22:33N 60°01' E 028°27'0 0.1
2016-Apr-29 21:33N 60°01' E 028°27'0 0.1
2016-Apr-29 20:33N 60°01' E 028°27'0 0.0
2016-Apr-29 19:33N 60°01' E 028°27'0 0.0
2016-Apr-29 18:33N 60°01' E 028°27'0 0.0
2016-Apr-29 17:33N 60°01' E 028°27'0 0.1
2016-Apr-29 16:33N 60°01' E 028°27'0 0.0
2016-Apr-29 15:33N 60°01' E 028°27'0 0.0
2016-Apr-29 14:33N 60°01' E 028°27'0 0.0
2016-Apr-29 13:33N 60°01' E 028°27'0 0.0
2016-Apr-29 12:33N 60°01' E 028°27'0 0.0
2016-Apr-29 11:33N 60°01' E 028°27'0 0.0
2016-Apr-29 10:33N 60°01' E 028°27'0 0.0
2016-Apr-29 09:33N 60°01' E 028°27'0 0.0
2016-Apr-29 08:33N 60°01' E 028°27'0 0.0
2016-Apr-29 07:33N 60°01' E 028°27'0 0.0
2016-Apr-29 06:33N 60°01' E 028°27'0 0.0
2016-Apr-29 05:33N 60°01' E 028°27'0 0.0
2016-Apr-29 04:33N 60°01' E 028°27'0 0.0
2016-Apr-29 03:34N 60°01' E 028°27'0 0.0
2016-Apr-29 02:33N 60°01' E 028°27'0 0.0
2016-Apr-29 01:33N 60°01' E 028°27'0 0.0
2016-Apr-29 00:33N 60°01' E 028°27'0 0.0
2016-Apr-28 23:33N 60°01' E 028°27'0 0.1
2016-Apr-28 22:33N 60°01' E 028°27'0 0.1
2016-Apr-28 21:33N 60°01' E 028°27'0 0.1
2016-Apr-28 20:33N 60°01' E 028°27'0 0.0
2016-Apr-28 19:33N 60°01' E 028°27'0 0.0
2016-Apr-28 18:33N 60°01' E 028°27'0 0.0
2016-Apr-28 17:33N 60°01' E 028°27'0 0.0
2016-Apr-28 16:33N 60°01' E 028°27'0 0.1
2016-Apr-28 15:33N 60°01' E 028°27'0 0.0
2016-Apr-28 14:33N 60°01' E 028°27'0 0.0
2016-Apr-28 13:33N 60°01' E 028°27'0 0.0
2016-Apr-28 12:33N 60°01' E 028°27'0 0.0
2016-Apr-28 11:33N 60°01' E 028°27'0 0.0
2016-Apr-28 10:33N 60°01' E 028°27'0 0.0
2016-Apr-28 09:33N 60°01' E 028°27'0 0.0
2016-Apr-28 08:33N 60°01' E 028°27'0 0.1
2016-Apr-28 07:33N 60°01' E 028°27'3 2.9
2016-Apr-28 06:33N 60°04' E 028°24'9 9.2
2016-Apr-28 05:33N 60°08' E 028°08'10 9.5
2016-Apr-28 04:33N 60°11' E 027°49'9 9.2
2016-Apr-28 03:33N 60°07' E 027°33'10 9.5
2016-Apr-28 02:33N 60°02' E 027°16'11 9.0
2016-Apr-28 01:17N 59°59' E 026°54'7 9.4
2016-Apr-28 00:33N 59°60' E 026°41'10 9.4
2016-Apr-27 23:29N 59°57' E 026°21'9 9.2
2016-Apr-27 22:33N 59°55' E 026°05'9 9.2
2016-Apr-27 21:33N 59°52' E 025°47'9 9.1
2016-Apr-27 20:33N 59°50' E 025°29'45 9.0
2016-Apr-27 15:33N 59°40' E 024°03'9 9.5
2016-Apr-27 14:33N 59°37' E 023°45'10 9.6
2016-Apr-27 13:33N 59°34' E 023°27'10 9.8
2016-Apr-27 12:31N 59°31' E 023°08'33310.0
2016-Apr-26 03:03N 55°40' E 015°41'610.7
2016-Apr-26 02:32N 55°38' E 015°31'1110.8
2016-Apr-26 01:33N 55°34' E 015°14'1110.9
2016-Apr-26 00:33N 55°29' E 014°57'1110.8
2016-Apr-25 23:33N 55°24' E 014°40'1414.0
2016-Apr-25 22:34N 55°13' E 014°26'1515.2
2016-Apr-25 21:34N 55°01' E 014°09'1515.4
2016-Apr-25 20:33N 54°55' E 013°44'4414.6
2016-Apr-25 17:33N 54°41' E 012°32'1311.8
2016-Apr-25 16:25N 54°31' E 012°16'9 9.5
2016-Apr-25 15:30N 54°24' E 012°06'1111.3
2016-Apr-25 14:33N 54°25' E 011°48'1211.5
2016-Apr-25 13:33N 54°30' E 011°30'1111.3
2016-Apr-25 12:33N 54°35' E 011°12'1211.7
2016-Apr-25 11:33N 54°41' E 010°55'10 9.9
2016-Apr-25 10:33N 54°51' E 010°52'10 9.8
2016-Apr-25 09:33N 54°59' E 011°00'1010.2
2016-Apr-25 08:33N 55°09' E 011°03'9 9.3
2016-Apr-25 07:33N 55°19' E 011°02'4310.3
2016-Apr-25 03:24N 56°01' E 011°02'1011.3
2016-Apr-25 02:34N 56°11' E 011°05'4110.2
2016-Apr-24 22:33N 56°44' E 011°49'1010.3
2016-Apr-24 21:33N 56°54' E 011°46'1110.8
2016-Apr-24 20:33N 57°04' E 011°40'1110.9
2016-Apr-24 19:33N 57°14' E 011°33'1111.5
2016-Apr-24 18:33N 57°25' E 011°26'1111.4
2016-Apr-24 17:33N 57°34' E 011°12'1211.6
2016-Apr-24 16:33N 57°42' E 010°56'1010.5
2016-Apr-24 15:33N 57°47' E 010°39'  

Dump ship's entire track history